sensor_id;sensor_type;location;lat;lon;timestamp;P1;durP1;ratioP1;P2;durP2;ratioP2
20739;SDS011;10530;49.968;19.844;2022-10-31T00:02:22;30.33;;;12.50;;
20739;SDS011;10530;49.968;19.844;2022-10-31T00:07:25;31.92;;;13.18;;
20739;SDS011;10530;49.968;19.844;2022-10-31T00:12:27;35.20;;;13.53;;
20739;SDS011;10530;49.968;19.844;2022-10-31T00:17:30;27.90;;;11.38;;
20739;SDS011;10530;49.968;19.844;2022-10-31T00:22:36;32.33;;;11.93;;
20739;SDS011;10530;49.968;19.844;2022-10-31T00:27:38;30.17;;;12.50;;
20739;SDS011;10530;49.968;19.844;2022-10-31T00:32:41;34.70;;;13.07;;
20739;SDS011;10530;49.968;19.844;2022-10-31T00:37:44;30.97;;;11.77;;
20739;SDS011;10530;49.968;19.844;2022-10-31T00:42:47;26.58;;;11.35;;
20739;SDS011;10530;49.968;19.844;2022-10-31T00:47:50;30.77;;;11.98;;
20739;SDS011;10530;49.968;19.844;2022-10-31T00:52:53;32.87;;;11.43;;
20739;SDS011;10530;49.968;19.844;2022-10-31T00:57:55;30.52;;;12.57;;
20739;SDS011;10530;49.968;19.844;2022-10-31T01:02:59;35.53;;;11.70;;
20739;SDS011;10530;49.968;19.844;2022-10-31T01:08:02;31.52;;;12.55;;
20739;SDS011;10530;49.968;19.844;2022-10-31T01:13:05;36.42;;;11.57;;
20739;SDS011;10530;49.968;19.844;2022-10-31T01:18:08;29.13;;;10.73;;
20739;SDS011;10530;49.968;19.844;2022-10-31T01:23:10;30.05;;;11.45;;
20739;SDS011;10530;49.968;19.844;2022-10-31T01:28:15;29.57;;;11.60;;
20739;SDS011;10530;49.968;19.844;2022-10-31T01:33:17;31.17;;;11.20;;
20739;SDS011;10530;49.968;19.844;2022-10-31T01:38:20;31.65;;;11.15;;
20739;SDS011;10530;49.968;19.844;2022-10-31T01:43:23;30.83;;;11.57;;
20739;SDS011;10530;49.968;19.844;2022-10-31T01:48:43;26.73;;;10.18;;
20739;SDS011;10530;49.968;19.844;2022-10-31T01:53:46;29.13;;;10.90;;
20739;SDS011;10530;49.968;19.844;2022-10-31T01:58:50;31.75;;;11.48;;
20739;SDS011;10530;49.968;19.844;2022-10-31T02:03:54;28.35;;;10.95;;
20739;SDS011;10530;49.968;19.844;2022-10-31T02:08:58;31.17;;;11.10;;
20739;SDS011;10530;49.968;19.844;2022-10-31T02:14:02;32.60;;;11.60;;
20739;SDS011;10530;49.968;19.844;2022-10-31T02:19:06;36.13;;;12.17;;
20739;SDS011;10530;49.968;19.844;2022-10-31T02:29:49;29.10;;;11.32;;
20739;SDS011;10530;49.968;19.844;2022-10-31T02:40:27;39.83;;;12.82;;
20739;SDS011;10530;49.968;19.844;2022-10-31T02:45:57;26.07;;;10.70;;
20739;SDS011;10530;49.968;19.844;2022-10-31T02:51:03;35.67;;;12.43;;
20739;SDS011;10530;49.968;19.844;2022-10-31T02:56:10;31.88;;;11.27;;
20739;SDS011;10530;49.968;19.844;2022-10-31T03:13:31;31.37;;;11.43;;
20739;SDS011;10530;49.968;19.844;2022-10-31T03:23:23;61.40;;;12.70;;
20739;SDS011;10530;49.968;19.844;2022-10-31T03:28:31;30.27;;;11.23;;
20739;SDS011;10530;49.968;19.844;2022-10-31T03:33:41;32.63;;;12.88;;
20739;SDS011;10530;49.968;19.844;2022-10-31T03:38:46;39.63;;;13.37;;
20739;SDS011;10530;49.968;19.844;2022-10-31T03:43:59;32.97;;;12.48;;
20739;SDS011;10530;49.968;19.844;2022-10-31T03:49:06;37.50;;;12.43;;
20739;SDS011;10530;49.968;19.844;2022-10-31T03:54:11;33.63;;;12.03;;
20739;SDS011;10530;49.968;19.844;2022-10-31T03:59:24;35.88;;;12.45;;
20739;SDS011;10530;49.968;19.844;2022-10-31T04:04:33;36.57;;;11.90;;
20739;SDS011;10530;49.968;19.844;2022-10-31T04:09:40;32.30;;;12.18;;
20739;SDS011;10530;49.968;19.844;2022-10-31T04:14:46;33.30;;;12.35;;
20739;SDS011;10530;49.968;19.844;2022-10-31T04:19:50;33.87;;;12.77;;
20739;SDS011;10530;49.968;19.844;2022-10-31T04:24:53;32.75;;;12.90;;
20739;SDS011;10530;49.968;19.844;2022-10-31T04:29:56;30.13;;;11.90;;
20739;SDS011;10530;49.968;19.844;2022-10-31T04:34:58;33.45;;;12.40;;
20739;SDS011;10530;49.968;19.844;2022-10-31T04:40:02;30.77;;;11.95;;
20739;SDS011;10530;49.968;19.844;2022-10-31T04:45:35;27.20;;;10.33;;
20739;SDS011;10530;49.968;19.844;2022-10-31T04:50:37;29.05;;;10.82;;
20739;SDS011;10530;49.968;19.844;2022-10-31T04:55:41;30.47;;;10.70;;
20739;SDS011;10530;49.968;19.844;2022-10-31T05:00:53;26.67;;;10.07;;
20739;SDS011;10530;49.968;19.844;2022-10-31T05:05:57;31.67;;;11.25;;
20739;SDS011;10530;49.968;19.844;2022-10-31T05:11:00;24.57;;;9.30;;
20739;SDS011;10530;49.968;19.844;2022-10-31T05:16:06;31.55;;;9.85;;
20739;SDS011;10530;49.968;19.844;2022-10-31T05:21:27;24.80;;;9.10;;
20739;SDS011;10530;49.968;19.844;2022-10-31T05:26:34;25.92;;;9.20;;
20739;SDS011;10530;49.968;19.844;2022-10-31T05:31:37;24.65;;;9.43;;
20739;SDS011;10530;49.968;19.844;2022-10-31T05:36:42;26.10;;;9.03;;
20739;SDS011;10530;49.968;19.844;2022-10-31T05:41:53;24.98;;;9.32;;
20739;SDS011;10530;49.968;19.844;2022-10-31T05:47:01;30.43;;;8.87;;
20739;SDS011;10530;49.968;19.844;2022-10-31T05:52:22;24.45;;;9.60;;
20739;SDS011;10530;49.968;19.844;2022-10-31T05:57:34;24.83;;;9.80;;
20739;SDS011;10530;49.968;19.844;2022-10-31T06:02:36;23.17;;;8.63;;
20739;SDS011;10530;49.968;19.844;2022-10-31T06:07:59;23.55;;;9.52;;
20739;SDS011;10530;49.968;19.844;2022-10-31T06:13:04;24.23;;;9.03;;
20739;SDS011;10530;49.968;19.844;2022-10-31T06:18:14;23.70;;;9.95;;
20739;SDS011;10530;49.968;19.844;2022-10-31T06:23:22;23.17;;;8.95;;
20739;SDS011;10530;49.968;19.844;2022-10-31T06:28:32;22.03;;;8.80;;
20739;SDS011;10530;49.968;19.844;2022-10-31T06:33:47;23.85;;;9.35;;
20739;SDS011;10530;49.968;19.844;2022-10-31T06:38:51;22.07;;;8.80;;
20739;SDS011;10530;49.968;19.844;2022-10-31T06:43:57;29.83;;;10.50;;
20739;SDS011;10530;49.968;19.844;2022-10-31T06:49:25;24.92;;;9.82;;
20739;SDS011;10530;49.968;19.844;2022-10-31T06:54:31;26.90;;;10.10;;
20739;SDS011;10530;49.968;19.844;2022-10-31T06:59:35;28.50;;;9.65;;
20739;SDS011;10530;49.968;19.844;2022-10-31T07:04:54;27.17;;;9.57;;
20739;SDS011;10530;49.968;19.844;2022-10-31T07:09:57;24.17;;;9.43;;
20739;SDS011;10530;49.968;19.844;2022-10-31T07:15:24;25.67;;;9.50;;
20739;SDS011;10530;49.968;19.844;2022-10-31T07:20:29;24.63;;;9.60;;
20739;SDS011;10530;49.968;19.844;2022-10-31T07:25:32;22.17;;;9.60;;
20739;SDS011;10530;49.968;19.844;2022-10-31T07:30:40;23.43;;;9.07;;
20739;SDS011;10530;49.968;19.844;2022-10-31T07:35:43;24.27;;;9.85;;
20739;SDS011;10530;49.968;19.844;2022-10-31T07:40:51;25.38;;;9.35;;
20739;SDS011;10530;49.968;19.844;2022-10-31T07:45:58;21.53;;;8.83;;
20739;SDS011;10530;49.968;19.844;2022-10-31T07:51:20;20.33;;;9.07;;
20739;SDS011;10530;49.968;19.844;2022-10-31T07:56:52;23.03;;;9.80;;
20739;SDS011;10530;49.968;19.844;2022-10-31T08:01:55;23.25;;;9.10;;
20739;SDS011;10530;49.968;19.844;2022-10-31T08:07:16;21.95;;;8.80;;
20739;SDS011;10530;49.968;19.844;2022-10-31T08:12:27;23.30;;;10.07;;
20739;SDS011;10530;49.968;19.844;2022-10-31T08:17:30;21.00;;;9.38;;
20739;SDS011;10530;49.968;19.844;2022-10-31T08:22:36;25.40;;;10.23;;
20739;SDS011;10530;49.968;19.844;2022-10-31T08:27:48;20.60;;;9.90;;
20739;SDS011;10530;49.968;19.844;2022-10-31T08:38:30;18.53;;;8.43;;
20739;SDS011;10530;49.968;19.844;2022-10-31T08:43:33;20.40;;;9.20;;
20739;SDS011;10530;49.968;19.844;2022-10-31T08:48:35;22.17;;;9.40;;
20739;SDS011;10530;49.968;19.844;2022-10-31T08:53:39;19.75;;;8.63;;
20739;SDS011;10530;49.968;19.844;2022-10-31T08:59:01;21.55;;;8.93;;
20739;SDS011;10530;49.968;19.844;2022-10-31T09:04:20;21.67;;;9.87;;
20739;SDS011;10530;49.968;19.844;2022-10-31T09:09:23;20.73;;;10.07;;
20739;SDS011;10530;49.968;19.844;2022-10-31T09:14:26;18.53;;;8.30;;
20739;SDS011;10530;49.968;19.844;2022-10-31T09:19:55;15.02;;;8.05;;
20739;SDS011;10530;49.968;19.844;2022-10-31T09:25:05;15.93;;;8.15;;
20739;SDS011;10530;49.968;19.844;2022-10-31T09:30:08;16.57;;;8.03;;
20739;SDS011;10530;49.968;19.844;2022-10-31T09:35:12;14.02;;;7.18;;
20739;SDS011;10530;49.968;19.844;2022-10-31T09:40:15;15.10;;;6.93;;
20739;SDS011;10530;49.968;19.844;2022-10-31T09:45:31;16.95;;;7.20;;
20739;SDS011;10530;49.968;19.844;2022-10-31T09:51:06;12.18;;;6.22;;
20739;SDS011;10530;49.968;19.844;2022-10-31T09:56:21;13.83;;;6.73;;
20739;SDS011;10530;49.968;19.844;2022-10-31T10:01:47;12.73;;;6.30;;
20739;SDS011;10530;49.968;19.844;2022-10-31T10:06:58;18.23;;;7.10;;
20739;SDS011;10530;49.968;19.844;2022-10-31T10:23:51;18.20;;;7.60;;
20739;SDS011;10530;49.968;19.844;2022-10-31T10:29:01;13.57;;;6.72;;
20739;SDS011;10530;49.968;19.844;2022-10-31T10:34:17;14.63;;;7.33;;
20739;SDS011;10530;49.968;19.844;2022-10-31T10:39:29;13.73;;;7.50;;
20739;SDS011;10530;49.968;19.844;2022-10-31T10:44:40;16.95;;;7.13;;
20739;SDS011;10530;49.968;19.844;2022-10-31T10:50:17;15.93;;;7.50;;
20739;SDS011;10530;49.968;19.844;2022-10-31T11:00:25;15.37;;;8.40;;
20739;SDS011;10530;49.968;19.844;2022-10-31T11:05:41;15.93;;;7.93;;
20739;SDS011;10530;49.968;19.844;2022-10-31T11:11:18;14.13;;;7.65;;
20739;SDS011;10530;49.968;19.844;2022-10-31T11:21:32;16.38;;;7.63;;
20739;SDS011;10530;49.968;19.844;2022-10-31T11:26:37;15.30;;;7.30;;
20739;SDS011;10530;49.968;19.844;2022-10-31T11:31:41;15.70;;;7.05;;
20739;SDS011;10530;49.968;19.844;2022-10-31T11:36:45;16.38;;;7.32;;
20739;SDS011;10530;49.968;19.844;2022-10-31T11:41:48;15.33;;;7.33;;
20739;SDS011;10530;49.968;19.844;2022-10-31T11:46:55;13.80;;;6.65;;
20739;SDS011;10530;49.968;19.844;2022-10-31T11:52:04;13.20;;;6.90;;
20739;SDS011;10530;49.968;19.844;2022-10-31T11:57:28;13.70;;;6.65;;
20739;SDS011;10530;49.968;19.844;2022-10-31T12:02:33;18.60;;;7.20;;
20739;SDS011;10530;49.968;19.844;2022-10-31T12:07:36;15.77;;;6.90;;
20739;SDS011;10530;49.968;19.844;2022-10-31T12:12:54;14.00;;;6.75;;
20739;SDS011;10530;49.968;19.844;2022-10-31T12:18:36;12.73;;;5.97;;
20739;SDS011;10530;49.968;19.844;2022-10-31T12:40:26;12.10;;;5.90;;
20739;SDS011;10530;49.968;19.844;2022-10-31T12:45:43;15.07;;;5.93;;
20739;SDS011;10530;49.968;19.844;2022-10-31T13:02:20;12.67;;;5.10;;
20739;SDS011;10530;49.968;19.844;2022-10-31T13:07:42;12.77;;;5.07;;
20739;SDS011;10530;49.968;19.844;2022-10-31T13:12:51;12.77;;;5.13;;
20739;SDS011;10530;49.968;19.844;2022-10-31T13:18:00;10.85;;;5.20;;
20739;SDS011;10530;49.968;19.844;2022-10-31T13:28:54;14.13;;;4.97;;
20739;SDS011;10530;49.968;19.844;2022-10-31T13:34:08;14.52;;;5.32;;
20739;SDS011;10530;49.968;19.844;2022-10-31T13:39:46;12.80;;;5.73;;
20739;SDS011;10530;49.968;19.844;2022-10-31T13:45:06;12.73;;;5.78;;
20739;SDS011;10530;49.968;19.844;2022-10-31T13:50:27;16.90;;;5.13;;
20739;SDS011;10530;49.968;19.844;2022-10-31T14:00:42;12.43;;;5.22;;
20739;SDS011;10530;49.968;19.844;2022-10-31T14:05:51;19.10;;;5.43;;
20739;SDS011;10530;49.968;19.844;2022-10-31T14:10:56;13.38;;;4.20;;
20739;SDS011;10530;49.968;19.844;2022-10-31T14:52:56;15.52;;;5.22;;
20739;SDS011;10530;49.968;19.844;2022-10-31T14:58:04;14.47;;;5.87;;
20739;SDS011;10530;49.968;19.844;2022-10-31T15:03:16;19.73;;;5.93;;
20739;SDS011;10530;49.968;19.844;2022-10-31T15:08:37;14.43;;;5.88;;
20739;SDS011;10530;49.968;19.844;2022-10-31T15:13:49;16.20;;;5.87;;
20739;SDS011;10530;49.968;19.844;2022-10-31T15:18:56;17.30;;;6.78;;
20739;SDS011;10530;49.968;19.844;2022-10-31T15:24:02;16.87;;;6.90;;
20739;SDS011;10530;49.968;19.844;2022-10-31T15:29:10;14.82;;;6.18;;
20739;SDS011;10530;49.968;19.844;2022-10-31T15:34:35;14.93;;;5.97;;
20739;SDS011;10530;49.968;19.844;2022-10-31T15:39:44;17.10;;;5.70;;
20739;SDS011;10530;49.968;19.844;2022-10-31T15:44:49;13.75;;;5.63;;
20739;SDS011;10530;49.968;19.844;2022-10-31T15:49:59;17.97;;;5.97;;
20739;SDS011;10530;49.968;19.844;2022-10-31T15:55:05;11.10;;;5.30;;
20739;SDS011;10530;49.968;19.844;2022-10-31T16:00:26;17.00;;;5.68;;
20739;SDS011;10530;49.968;19.844;2022-10-31T16:05:35;15.27;;;5.47;;
20739;SDS011;10530;49.968;19.844;2022-10-31T16:10:49;16.98;;;6.25;;
20739;SDS011;10530;49.968;19.844;2022-10-31T16:15:56;16.43;;;6.33;;
20739;SDS011;10530;49.968;19.844;2022-10-31T16:21:34;17.83;;;6.05;;
20739;SDS011;10530;49.968;19.844;2022-10-31T16:26:39;19.08;;;5.97;;
20739;SDS011;10530;49.968;19.844;2022-10-31T16:31:42;15.73;;;5.60;;
20739;SDS011;10530;49.968;19.844;2022-10-31T16:36:45;18.08;;;6.53;;
20739;SDS011;10530;49.968;19.844;2022-10-31T16:41:50;18.37;;;7.17;;
20739;SDS011;10530;49.968;19.844;2022-10-31T16:52:08;20.88;;;7.05;;
20739;SDS011;10530;49.968;19.844;2022-10-31T16:57:16;18.23;;;6.40;;
20739;SDS011;10530;49.968;19.844;2022-10-31T17:02:25;19.20;;;6.28;;
20739;SDS011;10530;49.968;19.844;2022-10-31T17:07:28;15.63;;;6.40;;
20739;SDS011;10530;49.968;19.844;2022-10-31T17:12:31;15.60;;;6.20;;
20739;SDS011;10530;49.968;19.844;2022-10-31T17:17:34;17.80;;;6.53;;
20739;SDS011;10530;49.968;19.844;2022-10-31T17:22:37;16.93;;;5.93;;
20739;SDS011;10530;49.968;19.844;2022-10-31T17:27:45;17.10;;;6.05;;
20739;SDS011;10530;49.968;19.844;2022-10-31T17:32:48;17.00;;;6.03;;
20739;SDS011;10530;49.968;19.844;2022-10-31T17:37:52;17.92;;;6.85;;
20739;SDS011;10530;49.968;19.844;2022-10-31T17:42:55;18.23;;;6.65;;
20739;SDS011;10530;49.968;19.844;2022-10-31T17:47:59;17.47;;;6.90;;
20739;SDS011;10530;49.968;19.844;2022-10-31T17:53:02;18.38;;;7.07;;
20739;SDS011;10530;49.968;19.844;2022-10-31T17:58:05;15.73;;;6.97;;
20739;SDS011;10530;49.968;19.844;2022-10-31T18:03:08;18.67;;;6.90;;
20739;SDS011;10530;49.968;19.844;2022-10-31T18:08:11;15.68;;;6.30;;
20739;SDS011;10530;49.968;19.844;2022-10-31T18:13:14;15.93;;;6.97;;
20739;SDS011;10530;49.968;19.844;2022-10-31T18:18:17;17.33;;;7.07;;
20739;SDS011;10530;49.968;19.844;2022-10-31T18:23:20;19.20;;;7.00;;
20739;SDS011;10530;49.968;19.844;2022-10-31T18:28:23;19.33;;;6.97;;
20739;SDS011;10530;49.968;19.844;2022-10-31T18:33:26;19.23;;;7.78;;
20739;SDS011;10530;49.968;19.844;2022-10-31T18:38:29;16.80;;;7.27;;
20739;SDS011;10530;49.968;19.844;2022-10-31T18:43:32;22.05;;;8.18;;
20739;SDS011;10530;49.968;19.844;2022-10-31T18:48:35;22.20;;;8.77;;
20739;SDS011;10530;49.968;19.844;2022-10-31T18:53:39;23.77;;;9.70;;
20739;SDS011;10530;49.968;19.844;2022-10-31T18:58:42;28.35;;;10.63;;
20739;SDS011;10530;49.968;19.844;2022-10-31T19:03:45;26.27;;;10.03;;
20739;SDS011;10530;49.968;19.844;2022-10-31T19:08:56;28.25;;;10.73;;
20739;SDS011;10530;49.968;19.844;2022-10-31T19:14:01;30.47;;;12.13;;
20739;SDS011;10530;49.968;19.844;2022-10-31T19:19:05;29.00;;;12.20;;
20739;SDS011;10530;49.968;19.844;2022-10-31T19:24:08;31.92;;;11.75;;
20739;SDS011;10530;49.968;19.844;2022-10-31T19:29:11;29.63;;;13.13;;
20739;SDS011;10530;49.968;19.844;2022-10-31T19:34:13;34.22;;;13.13;;
20739;SDS011;10530;49.968;19.844;2022-10-31T19:39:16;28.83;;;12.37;;
20739;SDS011;10530;49.968;19.844;2022-10-31T19:44:19;36.67;;;12.88;;
20739;SDS011;10530;49.968;19.844;2022-10-31T19:49:22;29.77;;;13.23;;
20739;SDS011;10530;49.968;19.844;2022-10-31T19:54:25;29.63;;;11.90;;
20739;SDS011;10530;49.968;19.844;2022-10-31T19:59:28;30.55;;;12.55;;
20739;SDS011;10530;49.968;19.844;2022-10-31T20:04:37;28.20;;;12.27;;
20739;SDS011;10530;49.968;19.844;2022-10-31T20:09:43;36.30;;;13.07;;
20739;SDS011;10530;49.968;19.844;2022-10-31T20:14:47;25.98;;;13.00;;
20739;SDS011;10530;49.968;19.844;2022-10-31T20:19:50;38.93;;;13.67;;
20739;SDS011;10530;49.968;19.844;2022-10-31T20:24:53;39.85;;;15.02;;
20739;SDS011;10530;49.968;19.844;2022-10-31T20:29:56;31.00;;;13.20;;
20739;SDS011;10530;49.968;19.844;2022-10-31T20:34:58;43.00;;;14.40;;
20739;SDS011;10530;49.968;19.844;2022-10-31T20:40:01;34.90;;;14.43;;
20739;SDS011;10530;49.968;19.844;2022-10-31T20:45:04;34.63;;;12.87;;
20739;SDS011;10530;49.968;19.844;2022-10-31T20:50:08;34.92;;;14.27;;
20739;SDS011;10530;49.968;19.844;2022-10-31T20:55:11;30.57;;;12.40;;
20739;SDS011;10530;49.968;19.844;2022-10-31T21:00:14;27.98;;;11.88;;
20739;SDS011;10530;49.968;19.844;2022-10-31T21:05:17;38.90;;;12.85;;
20739;SDS011;10530;49.968;19.844;2022-10-31T21:10:19;34.07;;;12.33;;
20739;SDS011;10530;49.968;19.844;2022-10-31T21:15:22;33.80;;;13.50;;
20739;SDS011;10530;49.968;19.844;2022-10-31T21:20:25;30.80;;;12.83;;
20739;SDS011;10530;49.968;19.844;2022-10-31T21:25:28;39.05;;;14.13;;
20739;SDS011;10530;49.968;19.844;2022-10-31T21:30:31;39.42;;;15.88;;
20739;SDS011;10530;49.968;19.844;2022-10-31T21:35:34;34.77;;;15.53;;
20739;SDS011;10530;49.968;19.844;2022-10-31T21:40:37;36.97;;;15.80;;
20739;SDS011;10530;49.968;19.844;2022-10-31T21:45:39;39.57;;;17.60;;
20739;SDS011;10530;49.968;19.844;2022-10-31T21:50:42;39.28;;;16.20;;
20739;SDS011;10530;49.968;19.844;2022-10-31T21:55:45;40.83;;;16.63;;
20739;SDS011;10530;49.968;19.844;2022-10-31T22:00:48;45.67;;;17.00;;
20739;SDS011;10530;49.968;19.844;2022-10-31T22:05:51;40.88;;;17.13;;
20739;SDS011;10530;49.968;19.844;2022-10-31T22:11:02;37.47;;;16.10;;
20739;SDS011;10530;49.968;19.844;2022-10-31T22:16:07;45.38;;;16.90;;
20739;SDS011;10530;49.968;19.844;2022-10-31T22:21:13;36.40;;;16.80;;
20739;SDS011;10530;49.968;19.844;2022-10-31T22:26:18;45.20;;;17.50;;
20739;SDS011;10530;49.968;19.844;2022-10-31T22:31:21;46.28;;;18.50;;
20739;SDS011;10530;49.968;19.844;2022-10-31T22:36:26;94.47;;;18.77;;
20739;SDS011;10530;49.968;19.844;2022-10-31T22:41:31;49.55;;;18.45;;
20739;SDS011;10530;49.968;19.844;2022-10-31T22:46:35;43.97;;;18.38;;
20739;SDS011;10530;49.968;19.844;2022-10-31T22:51:40;50.30;;;18.53;;
20739;SDS011;10530;49.968;19.844;2022-10-31T22:56:44;40.25;;;17.42;;
20739;SDS011;10530;49.968;19.844;2022-10-31T23:01:47;38.37;;;16.27;;
20739;SDS011;10530;49.968;19.844;2022-10-31T23:06:50;43.67;;;17.00;;
20739;SDS011;10530;49.968;19.844;2022-10-31T23:11:53;42.10;;;17.20;;
20739;SDS011;10530;49.968;19.844;2022-10-31T23:16:55;40.07;;;17.20;;
20739;SDS011;10530;49.968;19.844;2022-10-31T23:21:59;70.40;;;19.67;;
20739;SDS011;10530;49.968;19.844;2022-10-31T23:27:13;45.50;;;17.07;;
20739;SDS011;10530;49.968;19.844;2022-10-31T23:32:18;40.00;;;16.75;;
20739;SDS011;10530;49.968;19.844;2022-10-31T23:37:26;41.38;;;16.65;;
20739;SDS011;10530;49.968;19.844;2022-10-31T23:42:31;42.33;;;16.00;;
20739;SDS011;10530;49.968;19.844;2022-10-31T23:47:33;39.63;;;15.98;;
20739;SDS011;10530;49.968;19.844;2022-10-31T23:52:41;79.03;;;15.63;;
20739;SDS011;10530;49.968;19.844;2022-10-31T23:57:44;40.53;;;14.65;;
